Time;durP1;ratioP1;P1;durP2;ratioP2;P2;SDS_P1;SDS_P2;PMS_P1;PMS_P2;Temp;Humidity;BMP_temperature;BMP_pressure;BME280_temperature;BME280_humidity;BME280_pressure;Samples;Min_cycle;Max_cycle;Signal;HPM_P1;HPM_P2
2023/07/14 00:00:31;;;;;;;9.45;4.32;;;17.00;99.90;;;;;;5087202;28;20073;-80
2023/07/14 00:02:58;;;;;;;10.63;4.50;;;17.00;99.90;;;;;;5125480;28;20081;-80
2023/07/14 00:05:31;;;;;;;15.50;4.27;;;17.00;99.90;;;;;;5107089;28;20088;-81
2023/07/14 00:07:57;;;;;;;12.18;4.25;;;16.90;99.90;;;;;;5114230;28;20051;-82
2023/07/14 00:10:31;;;;;;;15.95;4.72;;;16.90;99.90;;;;;;5089417;28;20046;-80
2023/07/14 00:12:58;;;;;;;8.15;4.60;;;16.90;99.90;;;;;;5103740;28;20146;-80
2023/07/14 00:15:24;;;;;;;11.05;5.25;;;16.80;99.90;;;;;;5124623;28;20051;-80
2023/07/14 00:17:56;;;;;;;10.95;4.53;;;16.80;99.90;;;;;;5127954;28;20444;-80
2023/07/14 00:20:26;;;;;;;9.45;3.92;;;16.70;99.90;;;;;;5105079;28;20057;-80
2023/07/14 00:22:53;;;;;;;7.25;4.20;;;16.70;99.90;;;;;;5121061;28;20390;-80
2023/07/14 00:25:21;;;;;;;10.93;4.07;;;16.70;99.90;;;;;;5100286;28;20523;-80
2023/07/14 00:27:47;;;;;;;9.32;4.85;;;16.60;99.90;;;;;;5125303;28;20048;-80
2023/07/14 00:30:19;;;;;;;10.43;4.20;;;16.50;99.90;;;;;;5107272;28;20062;-82
2023/07/14 00:32:48;;;;;;;6.90;4.35;;;16.50;99.90;;;;;;5118637;28;20044;-80
2023/07/14 00:35:22;;;;;;;10.88;4.43;;;16.50;99.90;;;;;;5079617;28;20085;-79
2023/07/14 00:37:51;;;;;;;11.48;4.40;;;16.50;99.90;;;;;;5124984;28;20039;-80
2023/07/14 00:40:36;;;;;;;7.93;4.10;;;16.50;99.90;;;;;;5128778;28;20036;-80
2023/07/14 00:43:03;;;;;;;8.48;4.78;;;16.50;99.90;;;;;;5131511;28;20099;-82
2023/07/14 00:45:30;;;;;;;13.40;5.25;;;16.40;99.90;;;;;;5125874;28;20043;-80
2023/07/14 00:48:03;;;;;;;9.48;4.45;;;16.40;99.90;;;;;;5128074;28;20043;-80
2023/07/14 00:50:54;;;;;;;11.40;5.30;;;16.40;99.90;;;;;;5119708;28;20095;-80
2023/07/14 00:53:24;;;;;;;8.73;5.43;;;16.40;99.90;;;;;;5118628;28;20054;-79
2023/07/14 00:56:08;;;;;;;8.75;5.57;;;16.40;99.90;;;;;;5117411;28;20052;-79
2023/07/14 00:58:39;;;;;;;10.88;5.53;;;16.40;99.90;;;;;;5109220;28;20040;-78
2023/07/14 01:01:10;;;;;;;9.48;5.95;;;16.40;99.90;;;;;;5121350;28;20035;-79
2023/07/14 01:03:43;;;;;;;12.27;6.53;;;16.30;99.90;;;;;;5120442;28;20073;-80
2023/07/14 01:06:26;;;;;;;12.32;6.32;;;16.30;99.90;;;;;;5125325;28;20040;-80
2023/07/14 01:09:03;;;;;;;15.00;6.22;;;16.30;99.90;;;;;;5082985;28;20078;-81
2023/07/14 01:11:42;;;;;;;13.63;6.47;;;16.30;99.90;;;;;;5081740;28;20504;-80
2023/07/14 01:14:17;;;;;;;14.25;6.45;;;16.30;99.90;;;;;;5089444;28;20051;-80
2023/07/14 01:16:43;;;;;;;9.82;5.88;;;16.20;99.90;;;;;;5125885;28;20044;-80
2023/07/14 01:19:31;;;;;;;12.93;6.25;;;16.20;99.90;;;;;;5093114;28;20043;-80
2023/07/14 01:22:31;;;;;;;12.15;6.20;;;16.20;99.90;;;;;;5117918;28;20063;-80
2023/07/14 01:25:00;;;;;;;14.23;7.22;;;16.20;99.90;;;;;;5123618;28;20035;-79
2023/07/14 01:27:28;;;;;;;14.73;6.93;;;16.20;99.90;;;;;;5105843;28;20524;-79
2023/07/14 01:29:56;;;;;;;13.05;7.00;;;16.20;99.90;;;;;;5101887;28;20043;-79
2023/07/14 01:32:24;;;;;;;12.20;6.93;;;16.20;99.90;;;;;;5121273;28;20160;-80
2023/07/14 01:34:50;;;;;;;14.40;6.90;;;16.10;99.90;;;;;;5124829;28;20161;-79
2023/07/14 01:37:19;;;;;;;11.23;6.22;;;16.10;99.90;;;;;;5103373;28;20505;-80
2023/07/14 01:39:49;;;;;;;12.10;6.63;;;16.10;99.90;;;;;;5103261;28;20059;-79
2023/07/14 01:42:15;;;;;;;13.27;7.20;;;16.10;99.90;;;;;;5122438;28;20031;-79
2023/07/14 01:44:43;;;;;;;13.40;8.48;;;16.10;99.90;;;;;;5104862;28;20054;-80
2023/07/14 01:47:11;;;;;;;12.52;6.05;;;16.10;99.90;;;;;;5125357;28;20073;-81
2023/07/14 01:49:41;;;;;;;17.95;7.10;;;16.10;99.90;;;;;;5104185;28;20040;-80
2023/07/14 01:52:15;;;;;;;13.18;7.07;;;16.10;99.90;;;;;;5128179;28;20051;-80
2023/07/14 01:54:55;;;;;;;14.30;6.63;;;16.10;99.90;;;;;;5128362;28;20050;-79
2023/07/14 01:57:24;;;;;;;10.48;6.78;;;16.10;99.90;;;;;;5112515;28;20036;-79
2023/07/14 02:00:00;;;;;;;11.00;6.30;;;16.10;99.90;;;;;;5107714;28;20036;-80
2023/07/14 02:02:34;;;;;;;20.38;8.30;;;16.10;99.90;;;;;;5102728;28;20130;-80
2023/07/14 02:05:05;;;;;;;13.75;6.97;;;16.00;99.90;;;;;;5105777;28;20044;-80
2023/07/14 02:07:32;;;;;;;13.38;7.57;;;16.00;99.90;;;;;;5104807;28;20424;-79
2023/07/14 02:09:58;;;;;;;11.50;7.10;;;16.10;99.90;;;;;;5105445;28;20100;-79
2023/07/14 02:12:31;;;;;;;13.43;6.85;;;16.10;99.90;;;;;;5123385;28;20035;-81
2023/07/14 02:15:07;;;;;;;11.98;7.65;;;16.00;99.90;;;;;;5105957;28;20047;-78
2023/07/14 02:17:35;;;;;;;12.10;7.78;;;16.00;99.90;;;;;;5118222;28;20054;-81
2023/07/14 02:20:06;;;;;;;14.02;8.50;;;16.00;99.90;;;;;;5107411;28;20048;-80
2023/07/14 02:22:34;;;;;;;12.10;7.80;;;15.90;99.90;;;;;;5109706;28;20071;-78
2023/07/14 02:25:02;;;;;;;;;;;15.90;99.90;;;;;;5121730;27;20024;-80
2023/07/14 02:27:31;;;;;;;14.68;7.65;;;15.90;99.90;;;;;;5125234;28;19951;-78
2023/07/14 02:30:02;;;;;;;12.15;8.13;;;15.90;99.90;;;;;;5105392;28;20042;-78
2023/07/14 02:32:37;;;;;;;12.80;8.32;;;15.90;99.90;;;;;;5115919;28;20039;-79
2023/07/14 02:35:23;;;;;;;12.40;6.88;;;15.90;99.90;;;;;;5103777;28;20051;-79
2023/07/14 02:38:02;;;;;;;15.93;7.80;;;15.80;99.90;;;;;;5120404;28;20040;-79
2023/07/14 02:40:32;;;;;;;11.95;7.72;;;15.80;99.90;;;;;;5089264;28;20031;-78
2023/07/14 02:42:58;;;;;;;14.50;7.70;;;15.80;99.90;;;;;;5124185;28;20036;-79
2023/07/14 02:45:27;;;;;;;14.30;8.27;;;15.80;99.90;;;;;;5121985;28;20102;-79
2023/07/14 02:47:56;;;;;;;12.32;8.70;;;15.80;99.90;;;;;;5117317;28;20047;-80
2023/07/14 02:50:21;;;;;;;16.02;8.20;;;15.80;99.90;;;;;;5084269;28;20065;-79
2023/07/14 02:52:47;;;;;;;10.60;7.22;;;15.80;99.90;;;;;;5104598;28;20031;-79
2023/07/14 02:55:13;;;;;;;17.25;8.25;;;15.90;99.90;;;;;;5125051;28;20043;-79
2023/07/14 02:57:39;;;;;;;13.27;9.02;;;15.80;99.90;;;;;;5120927;28;20054;-79
2023/07/14 03:00:08;;;;;;;14.00;8.93;;;15.80;99.90;;;;;;5101671;28;20035;-81
2023/07/14 03:02:34;;;;;;;15.50;9.23;;;15.90;99.90;;;;;;5102564;28;20042;-79
2023/07/14 03:05:00;;;;;;;13.15;7.88;;;15.80;99.90;;;;;;5117025;28;20068;-80
2023/07/14 03:07:26;;;;;;;13.77;8.20;;;15.80;99.90;;;;;;5110749;28;20128;-79
2023/07/14 03:09:52;;;;;;;11.27;7.78;;;15.90;99.90;;;;;;5102616;28;20048;-80
2023/07/14 03:12:20;;;;;;;15.15;8.52;;;15.90;99.90;;;;;;5097947;28;20051;-78
2023/07/14 03:14:54;;;;;;;14.07;7.53;;;15.80;99.90;;;;;;5117028;28;20400;-80
2023/07/14 03:17:20;;;;;;;13.10;7.78;;;15.80;99.90;;;;;;5099030;28;20038;-79
2023/07/14 03:19:47;;;;;;;15.68;8.35;;;15.80;99.90;;;;;;5095725;28;20040;-79
2023/07/14 03:22:14;;;;;;;14.93;8.98;;;15.80;99.90;;;;;;5115856;28;20046;-80
2023/07/14 03:24:40;;;;;;;13.18;8.18;;;15.80;99.90;;;;;;5120353;28;20038;-80
2023/07/14 03:27:09;;;;;;;12.30;8.65;;;15.80;99.90;;;;;;5094741;28;20409;-79
2023/07/14 03:29:38;;;;;;;15.35;8.63;;;15.70;99.90;;;;;;5097818;28;20511;-80
2023/07/14 03:32:04;;;;;;;15.68;8.98;;;15.90;99.90;;;;;;5118798;28;20126;-81
2023/07/14 03:34:30;;;;;;;16.08;9.07;;;15.70;99.90;;;;;;5120619;28;20032;-79
2023/07/14 03:36:55;;;;;;;12.65;9.07;;;15.70;99.90;;;;;;5118910;28;20057;-80
2023/07/14 03:39:25;;;;;;;14.77;8.95;;;15.70;99.90;;;;;;5100526;28;21654;-80
2023/07/14 03:41:55;;;;;;;16.95;9.73;;;15.60;99.90;;;;;;5098267;28;20044;-79
2023/07/14 03:44:21;;;;;;;16.17;8.48;;;15.70;99.90;;;;;;5115214;28;20039;-80
2023/07/14 03:46:48;;;;;;;10.88;7.65;;;15.60;99.90;;;;;;5118122;28;20036;-79
2023/07/14 03:49:14;;;;;;;16.33;8.50;;;15.60;99.90;;;;;;5116903;28;20040;-79
2023/07/14 03:51:40;;;;;;;17.30;8.10;;;15.60;99.90;;;;;;5078633;28;20099;-78
2023/07/14 03:54:07;;;;;;;14.32;8.25;;;15.60;99.90;;;;;;5120087;28;20381;-78
2023/07/14 03:56:33;;;;;;;14.13;7.18;;;15.60;99.90;;;;;;5110597;28;20040;-80
2023/07/14 03:58:59;;;;;;;15.75;7.90;;;15.50;99.90;;;;;;5093927;28;20508;-81
2023/07/14 04:01:30;;;;;;;11.95;7.15;;;15.60;99.90;;;;;;5099056;28;20075;-80
2023/07/14 04:03:56;;;;;;;20.35;8.32;;;15.60;99.90;;;;;;5096813;28;20082;-80
2023/07/14 04:06:22;;;;;;;23.08;7.50;;;15.60;99.90;;;;;;5117258;28;20114;-79
2023/07/14 04:08:53;;;;;;;15.80;8.18;;;15.50;99.90;;;;;;5102684;28;20061;-79
2023/07/14 04:11:18;;;;;;;15.38;7.45;;;15.50;99.90;;;;;;5123943;28;20105;-80
2023/07/14 04:13:44;;;;;;;14.07;7.28;;;15.50;99.90;;;;;;5126958;28;20481;-79
2023/07/14 04:16:10;;;;;;;15.85;7.13;;;15.60;99.90;;;;;;5106464;28;20039;-79
2023/07/14 04:18:37;;;;;;;14.77;7.22;;;15.60;99.90;;;;;;5117362;28;20077;-80
2023/07/14 04:21:06;;;;;;;11.27;6.55;;;15.60;99.90;;;;;;5119154;28;20040;-79
2023/07/14 04:23:34;;;;;;;13.82;6.70;;;15.60;99.90;;;;;;5103107;28;20062;-81
2023/07/14 04:26:01;;;;;;;11.02;5.82;;;15.60;99.90;;;;;;5121494;28;20028;-81
2023/07/14 04:28:28;;;;;;;16.92;6.80;;;15.60;99.90;;;;;;5121606;28;20042;-79
2023/07/14 04:31:00;;;;;;;12.30;5.63;;;15.70;99.90;;;;;;5119427;28;20043;-80
2023/07/14 04:33:26;;;;;;;13.93;6.05;;;15.70;99.90;;;;;;5097789;28;20496;-80
2023/07/14 04:35:56;;;;;;;12.48;5.93;;;15.70;99.90;;;;;;5116539;28;20420;-80
2023/07/14 04:38:23;;;;;;;10.57;5.50;;;15.70;99.90;;;;;;5114863;28;20047;-80
2023/07/14 04:40:50;;;;;;;15.10;5.95;;;15.70;99.90;;;;;;5107885;28;20158;-80
2023/07/14 04:43:16;;;;;;;18.05;5.65;;;15.70;99.90;;;;;;5095806;28;20082;-80
2023/07/14 04:45:47;;;;;;;13.98;5.53;;;15.80;99.90;;;;;;5115072;28;20045;-78
2023/07/14 04:48:17;;;;;;;16.55;5.75;;;15.80;99.90;;;;;;5112586;28;20133;-80
2023/07/14 04:50:46;;;;;;;9.90;4.80;;;15.80;99.90;;;;;;5119544;28;20100;-79
2023/07/14 04:53:14;;;;;;;12.13;4.80;;;15.90;99.90;;;;;;5099775;28;20092;-78
2023/07/14 04:55:42;;;;;;;8.45;4.32;;;15.90;99.90;;;;;;5115008;28;20077;-80
2023/07/14 04:58:13;;;;;;;10.43;4.57;;;15.90;99.90;;;;;;5119875;28;20046;-80
2023/07/14 05:00:41;;;;;;;9.63;4.70;;;16.00;99.90;;;;;;5117664;28;20063;-77
2023/07/14 05:03:08;;;;;;;12.13;4.90;;;16.00;99.90;;;;;;5124842;28;20031;-79
2023/07/14 05:05:35;;;;;;;16.00;5.10;;;16.10;99.90;;;;;;5124229;28;20401;-80
2023/07/14 05:08:01;;;;;;;14.50;4.65;;;16.10;99.90;;;;;;5112274;28;20048;-80
2023/07/14 05:10:28;;;;;;;14.20;5.22;;;16.20;99.90;;;;;;5118555;28;20417;-80
2023/07/14 05:12:56;;;;;;;9.38;4.50;;;16.20;99.90;;;;;;5117594;28;20108;-80
2023/07/14 05:15:24;;;;;;;14.73;4.97;;;16.20;99.90;;;;;;5117458;28;20036;-79
2023/07/14 05:17:50;;;;;;;8.93;4.35;;;16.30;99.90;;;;;;5095008;28;20482;-80
2023/07/14 05:20:18;;;;;;;9.90;4.10;;;16.30;99.90;;;;;;5116368;28;20057;-79
2023/07/14 05:22:50;;;;;;;10.75;4.65;;;16.40;99.90;;;;;;5097641;28;20028;-80
2023/07/14 05:25:17;;;;;;;13.77;5.00;;;16.50;99.90;;;;;;5110693;28;20038;-79
2023/07/14 05:27:44;;;;;;;12.85;4.95;;;16.60;99.90;;;;;;5085795;28;20039;-80
2023/07/14 05:30:14;;;;;;;14.65;4.80;;;16.70;99.90;;;;;;5081556;28;20055;-80
2023/07/14 05:32:41;;;;;;;10.85;4.72;;;16.80;99.90;;;;;;5098711;28;20162;-82
2023/07/14 05:35:07;;;;;;;13.68;4.38;;;16.80;99.90;;;;;;5082785;28;20100;-80
2023/07/14 05:37:33;;;;;;;14.55;4.50;;;16.90;99.90;;;;;;5098040;28;20051;-80
2023/07/14 05:39:59;;;;;;;13.45;4.55;;;17.00;99.90;;;;;;5117173;28;20093;-81
2023/07/14 05:42:25;;;;;;;10.95;4.53;;;17.10;99.90;;;;;;5119503;28;20335;-79
2023/07/14 05:44:51;;;;;;;11.38;4.72;;;17.10;99.90;;;;;;5117200;28;20402;-80
2023/07/14 05:47:17;;;;;;;8.85;4.25;;;17.20;99.90;;;;;;5099034;28;20438;-80
2023/07/14 05:49:42;;;;;;;12.18;3.83;;;17.30;99.90;;;;;;5098532;28;20099;-80
2023/07/14 05:52:10;;;;;;;10.50;4.20;;;17.40;99.90;;;;;;5101000;28;20497;-79
2023/07/14 05:54:36;;;;;;;11.98;4.25;;;17.50;99.90;;;;;;5100670;28;20048;-83
2023/07/14 05:57:02;;;;;;;10.68;4.00;;;17.70;99.90;;;;;;5100792;28;20123;-80
2023/07/14 05:59:28;;;;;;;10.85;4.20;;;17.90;99.90;;;;;;5102839;28;20067;-79
2023/07/14 06:01:56;;;;;;;11.18;3.75;;;18.00;99.90;;;;;;5103015;28;20051;-80
2023/07/14 06:04:22;;;;;;;17.02;3.90;;;18.10;99.90;;;;;;5123083;28;20027;-81
2023/07/14 06:06:48;;;;;;;8.25;3.95;;;18.20;99.90;;;;;;5083471;28;20039;-79
2023/07/14 06:09:17;;;;;;;10.55;4.07;;;18.40;99.90;;;;;;5103091;28;20069;-79
2023/07/14 06:11:44;;;;;;;14.75;4.40;;;19.00;99.90;;;;;;5100791;28;20038;-81
2023/07/14 06:14:11;;;;;;;9.27;3.67;;;18.90;99.90;;;;;;5117872;28;20036;-80
2023/07/14 06:16:37;;;;;;;14.38;3.72;;;19.10;99.90;;;;;;5114086;28;20036;-80
2023/07/14 06:19:03;;;;;;;7.78;3.75;;;19.30;99.90;;;;;;5099636;28;20024;-80
2023/07/14 06:21:31;;;;;;;7.93;3.28;;;19.40;99.90;;;;;;5097670;28;20106;-80
2023/07/14 06:23:57;;;;;;;8.13;4.25;;;19.50;99.90;;;;;;5125006;28;20419;-79
2023/07/14 06:26:23;;;;;;;7.63;3.10;;;19.60;99.90;;;;;;5120808;28;20027;-80
2023/07/14 06:28:48;;;;;;;9.55;3.40;;;19.50;99.90;;;;;;5120878;28;20043;-78
2023/07/14 06:31:14;;;;;;;11.35;3.60;;;19.50;99.90;;;;;;5116269;28;20036;-82
2023/07/14 06:33:40;;;;;;;12.70;3.90;;;19.50;99.90;;;;;;5100516;28;20054;-80
2023/07/14 06:36:07;;;;;;;12.52;3.78;;;19.40;99.90;;;;;;5115260;28;20088;-82
2023/07/14 06:38:34;;;;;;;7.90;3.53;;;19.50;99.90;;;;;;5100412;28;20036;-78
2023/07/14 06:41:02;;;;;;;9.30;4.30;;;19.50;99.90;;;;;;5112272;28;20044;-82
2023/07/14 06:43:32;;;;;;;8.65;3.70;;;19.50;99.90;;;;;;5097614;28;20308;-80
2023/07/14 06:45:58;;;;;;;11.70;4.20;;;19.60;99.90;;;;;;5102714;28;20040;-81
2023/07/14 06:48:26;;;;;;;12.20;4.05;;;19.70;99.90;;;;;;5110020;28;20469;-80
2023/07/14 06:50:52;;;;;;;8.75;3.20;;;19.70;99.90;;;;;;5070901;28;20130;-82
2023/07/14 06:53:19;;;;;;;6.43;3.70;;;19.90;99.90;;;;;;5118427;28;20057;-82
2023/07/14 06:55:45;;;;;;;10.38;3.40;;;19.90;99.90;;;;;;5104461;28;20031;-80
2023/07/14 06:58:11;;;;;;;12.48;4.32;;;20.00;99.90;;;;;;5091654;28;20040;-80
2023/07/14 07:00:37;;;;;;;9.30;3.63;;;20.00;99.90;;;;;;5098499;28;20047;-79
2023/07/14 07:03:04;;;;;;;10.45;3.67;;;20.10;99.90;;;;;;5085046;28;20058;-80
2023/07/14 07:05:34;;;;;;;8.82;3.35;;;20.20;99.90;;;;;;5104962;28;20560;-78
2023/07/14 07:07:59;;;;;;;10.10;3.30;;;20.20;99.90;;;;;;5126659;28;20055;-81
2023/07/14 07:10:25;;;;;;;11.43;3.88;;;20.30;99.90;;;;;;5107024;28;20052;-80
2023/07/14 07:12:51;;;;;;;9.20;3.53;;;20.30;99.90;;;;;;5123720;28;20050;-81
2023/07/14 07:15:16;;;;;;;9.90;3.00;;;20.40;99.90;;;;;;5119498;28;20118;-79
2023/07/14 07:17:43;;;;;;;10.73;3.42;;;20.40;99.90;;;;;;5101922;28;20047;-80
2023/07/14 07:20:09;;;;;;;8.00;2.88;;;20.50;99.90;;;;;;5098664;28;20035;-79
2023/07/14 07:22:40;;;;;;;8.85;3.13;;;20.50;99.90;;;;;;5105391;28;20066;-80
2023/07/14 07:25:06;;;;;;;8.63;3.63;;;20.60;99.90;;;;;;5093759;28;20032;-81
2023/07/14 07:27:32;;;;;;;8.85;3.10;;;20.60;99.90;;;;;;5121110;28;20036;-81
2023/07/14 07:30:00;;;;;;;8.38;3.60;;;20.70;99.90;;;;;;5116805;28;20099;-81
2023/07/14 07:32:27;;;;;;;10.15;3.08;;;20.70;99.90;;;;;;5085052;28;20363;-81
2023/07/14 07:34:59;;;;;;;8.05;3.20;;;20.80;99.90;;;;;;5118225;28;20481;-79
2023/07/14 07:37:28;;;;;;;7.43;3.70;;;20.90;99.90;;;;;;5113283;28;20071;-79
2023/07/14 07:39:55;;;;;;;7.13;3.20;;;21.00;99.90;;;;;;5122083;28;20044;-79
2023/07/14 07:42:22;;;;;;;10.10;3.80;;;21.00;99.90;;;;;;5081611;28;20044;-79
2023/07/14 07:44:47;;;;;;;6.75;3.22;;;21.10;99.90;;;;;;5110715;28;20281;-80
2023/07/14 07:47:13;;;;;;;7.53;3.05;;;21.10;99.90;;;;;;5103050;28;20045;-79
2023/07/14 07:49:39;;;;;;;10.25;3.55;;;21.10;99.90;;;;;;5114244;28;20023;-80
2023/07/14 07:52:07;;;;;;;9.38;3.63;;;21.20;99.90;;;;;;5117775;28;21240;-79
2023/07/14 07:54:34;;;;;;;7.88;3.13;;;21.10;99.90;;;;;;5114576;28;20048;-81
2023/07/14 07:56:59;;;;;;;6.43;2.60;;;21.10;99.90;;;;;;5101914;28;20031;-80
2023/07/14 07:59:26;;;;;;;11.00;2.90;;;21.30;99.90;;;;;;5101313;28;20062;-79
2023/07/14 08:01:52;;;;;;;5.80;3.00;;;21.40;99.90;;;;;;5116322;28;20044;-81
2023/07/14 08:04:18;;;;;;;7.70;3.20;;;21.40;99.90;;;;;;5119904;28;20058;-80
2023/07/14 08:06:44;;;;;;;11.95;2.95;;;21.50;99.90;;;;;;5118262;28;20043;-80
2023/07/14 08:09:12;;;;;;;10.40;3.63;;;21.50;99.90;;;;;;5111821;28;20043;-79
2023/07/14 08:11:38;;;;;;;12.82;3.95;;;21.40;99.90;;;;;;5083063;28;20032;-79
2023/07/14 08:14:10;;;;;;;6.93;2.92;;;21.40;99.90;;;;;;5105408;28;20074;-81
2023/07/14 08:16:36;;;;;;;10.85;4.20;;;21.40;99.90;;;;;;5123351;28;20085;-80
2023/07/14 08:19:03;;;;;;;7.63;4.35;;;21.40;99.90;;;;;;5124374;28;20051;-80
2023/07/14 08:21:30;;;;;;;10.07;4.23;;;21.40;99.90;;;;;;5094398;28;20032;-79
2023/07/14 08:23:56;;;;;;;8.38;4.13;;;21.50;99.90;;;;;;5108790;28;20313;-80
2023/07/14 08:26:22;;;;;;;11.45;3.75;;;21.60;99.90;;;;;;5124688;28;20474;-81
2023/07/14 08:28:48;;;;;;;9.02;4.40;;;21.50;99.90;;;;;;5119982;28;20050;-80
2023/07/14 08:31:15;;;;;;;7.63;4.13;;;21.30;99.90;;;;;;5119269;28;20075;-80
2023/07/14 08:33:44;;;;;;;9.32;4.10;;;21.40;99.90;;;;;;5078899;28;20044;-80
2023/07/14 08:36:12;;;;;;;8.93;3.35;;;21.50;99.90;;;;;;5102884;28;20068;-80
2023/07/14 08:38:40;;;;;;;8.90;4.40;;;21.60;99.90;;;;;;5104200;28;20082;-83
2023/07/14 08:41:05;;;;;;;;;;;21.90;99.90;;;;;;5103911;28;20398;-80
2023/07/14 08:43:50;;;;;;;7.15;3.60;;;22.10;99.90;;;;;;5120756;28;19928;-80
2023/07/14 08:46:31;;;;;;;8.32;3.60;;;22.30;99.90;;;;;;5099216;28;20040;-81
2023/07/14 08:49:23;;;;;;;8.43;2.90;;;22.30;99.40;;;;;;5099429;28;20040;-81
2023/07/14 08:52:02;;;;;;;4.35;2.45;;;22.40;99.10;;;;;;5100330;28;20080;-81
2023/07/14 08:54:40;;;;;;;5.88;3.20;;;22.50;97.60;;;;;;5101742;28;20092;-79
2023/07/14 08:57:19;;;;;;;5.80;2.53;;;22.50;97.80;;;;;;5097671;28;20122;-80
2023/07/14 08:59:46;;;;;;;6.32;2.88;;;22.30;98.20;;;;;;5103025;28;20051;-80
2023/07/14 09:02:25;;;;;;;9.07;3.05;;;22.40;98.30;;;;;;5104133;28;20044;-80
2023/07/14 09:05:24;;;;;;;6.65;3.47;;;22.50;98.40;;;;;;5122500;28;20043;-80
2023/07/14 09:07:51;;;;;;;9.10;3.13;;;22.70;98.30;;;;;;5103663;28;20044;-81
2023/07/14 09:10:17;;;;;;;8.98;3.08;;;23.00;99.40;;;;;;5102597;28;20087;-82
2023/07/14 09:13:10;;;;;;;7.15;3.08;;;23.30;98.90;;;;;;5101301;28;20168;-78
2023/07/14 09:15:36;;;;;;;6.38;2.60;;;23.40;96.20;;;;;;5111995;28;20052;-80
2023/07/14 09:18:47;;;;;;;10.25;2.88;;;23.40;97.20;;;;;;5101848;28;20044;-80
2023/07/14 09:21:23;;;;;;;9.63;2.85;;;23.60;95.30;;;;;;5113805;28;20044;-80
2023/07/14 09:24:08;;;;;;;5.32;2.63;;;23.60;95.20;;;;;;5122418;28;20043;-80
2023/07/14 09:26:45;;;;;;;4.60;2.60;;;23.70;95.20;;;;;;5113719;28;20065;-80
2023/07/14 09:29:18;;;;;;;5.68;2.50;;;23.80;94.60;;;;;;5108619;28;20052;-80
2023/07/14 09:31:59;;;;;;;8.57;2.47;;;23.90;95.10;;;;;;5107220;28;20036;-79
2023/07/14 09:34:33;;;;;;;4.82;2.78;;;24.00;94.60;;;;;;5112223;28;20039;-80
2023/07/14 09:37:00;;;;;;;7.72;3.08;;;24.10;94.30;;;;;;5110790;28;20089;-81
2023/07/14 09:39:41;;;;;;;6.72;2.70;;;24.30;94.80;;;;;;5105742;28;20051;-79
2023/07/14 09:42:15;;;;;;;7.32;2.72;;;24.40;94.10;;;;;;5091532;28;20055;-79
2023/07/14 09:44:41;;;;;;;9.30;2.90;;;24.50;93.50;;;;;;5122014;28;20052;-80
2023/07/14 09:47:07;;;;;;;4.53;2.20;;;24.30;93.60;;;;;;5125736;28;20050;-80
2023/07/14 09:49:39;;;;;;;6.43;2.53;;;24.20;93.90;;;;;;5108658;28;20050;-80
2023/07/14 09:52:20;;;;;;;4.55;2.53;;;24.10;93.90;;;;;;5106669;28;20061;-81
2023/07/14 09:54:58;;;;;;;9.95;3.13;;;24.00;93.50;;;;;;5124769;28;20396;-81
2023/07/14 09:57:30;;;;;;;4.43;2.20;;;24.10;94.10;;;;;;5103842;28;20050;-80
2023/07/14 09:59:59;;;;;;;5.95;2.53;;;24.00;93.90;;;;;;5105897;28;20370;-80
2023/07/14 10:02:28;;;;;;;7.22;2.65;;;23.80;93.40;;;;;;5111300;28;20044;-80
2023/07/14 10:04:59;;;;;;;9.40;2.95;;;23.50;93.50;;;;;;5103301;28;20044;-80
2023/07/14 10:07:25;;;;;;;4.53;2.55;;;23.40;93.90;;;;;;5123142;28;20055;-82
2023/07/14 10:10:01;;;;;;;7.82;3.38;;;23.40;94.30;;;;;;5106856;28;20054;-79
2023/07/14 10:12:48;;;;;;;7.53;3.08;;;23.30;93.90;;;;;;5125903;28;20043;-79
2023/07/14 10:15:33;;;;;;;7.00;2.75;;;23.20;93.80;;;;;;5110317;28;20036;-80
2023/07/14 10:18:19;;;;;;;6.70;2.65;;;23.00;94.40;;;;;;5110963;28;20128;-79
2023/07/14 10:21:16;;;;;;;4.82;2.80;;;23.10;95.00;;;;;;5107195;28;20501;-79
2023/07/14 10:24:06;;;;;;;5.47;2.70;;;23.30;95.10;;;;;;5090712;28;20035;-81
2023/07/14 10:26:35;;;;;;;5.80;2.75;;;23.50;94.70;;;;;;5103742;28;20056;-81
2023/07/14 10:29:15;;;;;;;7.78;3.25;;;23.70;94.20;;;;;;5106154;28;20040;-81
2023/07/14 10:31:47;;;;;;;8.63;2.60;;;23.90;94.20;;;;;;5086509;28;20046;-82
2023/07/14 10:34:26;;;;;;;4.70;2.40;;;24.20;94.20;;;;;;5121867;28;20052;-80
2023/07/14 10:36:54;;;;;;;;;;;24.40;93.30;;;;;;5084466;28;20051;-80
2023/07/14 10:39:39;;;;;;;6.05;3.08;;;24.10;91.90;;;;;;5111449;28;19949;-79
2023/07/14 10:42:24;;;;;;;5.97;2.67;;;24.00;92.60;;;;;;5096096;28;20055;-81
2023/07/14 10:44:50;;;;;;;7.68;2.88;;;24.30;92.10;;;;;;5101026;28;20435;-80
2023/07/14 10:47:20;;;;;;;5.18;2.88;;;24.50;92.70;;;;;;5087334;28;20078;-80
2023/07/14 10:49:59;;;;;;;6.10;2.60;;;24.50;92.10;;;;;;5101707;28;20044;-78
2023/07/14 10:52:38;;;;;;;4.20;2.38;;;24.50;92.30;;;;;;5106749;28;20397;-80
2023/07/14 10:55:21;;;;;;;6.20;3.08;;;24.20;92.10;;;;;;5117706;28;20055;-78
2023/07/14 10:58:04;;;;;;;7.78;2.55;;;24.00;92.20;;;;;;5085879;28;20052;-79
2023/07/14 11:01:11;;;;;;;6.93;3.00;;;23.80;92.80;;;;;;5097309;28;20048;-78
2023/07/14 11:03:47;;;;;;;6.90;3.40;;;23.60;93.20;;;;;;5062171;28;20124;-79
2023/07/14 11:06:24;;;;;;;6.95;3.38;;;23.50;92.50;;;;;;5088907;28;20044;-79
2023/07/14 11:08:53;;;;;;;5.05;2.90;;;23.40;93.10;;;;;;5081834;28;20055;-78
2023/07/14 11:11:44;;;;;;;5.93;3.05;;;23.40;93.20;;;;;;5082924;28;20061;-80
2023/07/14 11:14:13;;;;;;;5.53;2.50;;;23.40;93.00;;;;;;5118258;28;20054;-80
2023/07/14 11:17:17;;;;;;;5.45;2.88;;;23.40;93.30;;;;;;5112828;28;20078;-80
2023/07/14 11:19:57;;;;;;;5.85;3.03;;;23.70;93.50;;;;;;5077088;28;20026;-80
2023/07/14 11:22:35;;;;;;;31.65;3.45;;;24.10;92.50;;;;;;5116002;28;20043;-80
2023/07/14 11:25:05;;;;;;;;;;;24.10;92.60;;;;;;5091607;28;20047;-80
2023/07/14 11:27:42;;;;;;;9.25;3.00;;;23.90;91.80;;;;;;5114676;28;19968;-81
2023/07/14 11:30:27;;;;;;;5.90;2.72;;;23.70;92.20;;;;;;5115442;28;20035;-79
2023/07/14 11:33:05;;;;;;;5.57;2.85;;;23.50;92.00;;;;;;5095383;28;20086;-80
2023/07/14 11:35:35;;;;;;;5.45;2.50;;;23.50;92.60;;;;;;5118773;28;20074;-80
2023/07/14 11:38:19;;;;;;;6.65;2.92;;;23.40;92.70;;;;;;5098221;28;20043;-81
2023/07/14 11:40:46;;;;;;;4.53;2.60;;;23.70;93.00;;;;;;5077028;28;20059;-83
2023/07/14 11:43:24;;;;;;;6.47;3.03;;;24.00;92.90;;;;;;5089335;28;20043;-82
2023/07/14 11:46:06;;;;;;;6.68;2.75;;;24.30;92.80;;;;;;5085135;28;20039;-80
2023/07/14 11:48:40;;;;;;;7.47;2.90;;;24.50;92.40;;;;;;5094251;28;20405;-80
2023/07/14 11:51:10;;;;;;;7.18;3.03;;;24.60;91.90;;;;;;5118634;28;20083;-80
2023/07/14 11:53:40;;;;;;;5.60;2.80;;;24.50;91.60;;;;;;5100901;28;20043;-80
2023/07/14 11:56:25;;;;;;;6.40;2.90;;;24.40;91.20;;;;;;5106812;28;20067;-82
2023/07/14 11:59:20;;;;;;;6.50;3.00;;;24.60;92.60;;;;;;5117651;28;20036;-80
2023/07/14 12:01:49;;;;;;;8.68;3.00;;;25.00;92.70;;;;;;5102815;28;20063;-80
2023/07/14 12:04:23;;;;;;;10.00;3.60;;;25.30;91.50;;;;;;5081957;28;20040;-79
2023/07/14 12:07:09;;;;;;;9.18;2.67;;;25.20;90.80;;;;;;5102397;28;20115;-81
2023/07/14 12:09:57;;;;;;;9.02;3.22;;;25.20;91.20;;;;;;5122973;28;20119;-80
2023/07/14 12:12:25;;;;;;;10.38;3.08;;;25.10;91.00;;;;;;5127115;28;20443;-80
2023/07/14 12:14:52;;;;;;;7.68;2.95;;;25.00;91.30;;;;;;5126613;28;20039;-79
2023/07/14 12:17:36;;;;;;;16.10;3.47;;;25.00;91.30;;;;;;5128293;28;20061;-80
2023/07/14 12:20:28;;;;;;;6.82;2.83;;;25.10;91.20;;;;;;5126555;28;20135;-80
2023/07/14 12:23:12;;;;;;;6.32;2.53;;;25.30;91.00;;;;;;5105188;28;20055;-78
2023/07/14 12:25:42;;;;;;;5.97;2.85;;;25.70;89.70;;;;;;5068020;28;20047;-79
2023/07/14 12:28:18;;;;;;;8.63;2.50;;;25.80;90.00;;;;;;5103553;28;20362;-80
2023/07/14 12:30:51;;;;;;;6.10;2.85;;;25.90;89.70;;;;;;5102395;28;20039;-80
2023/07/14 12:33:19;;;;;;;4.25;2.65;;;25.60;89.20;;;;;;5120956;28;20398;-80
2023/07/14 12:35:46;;;;;;;7.38;2.80;;;25.40;90.00;;;;;;5102118;28;20040;-80
2023/07/14 12:38:16;;;;;;;6.60;3.50;;;25.20;90.10;;;;;;5115576;28;20044;-80
2023/07/14 12:40:43;;;;;;;5.65;2.85;;;25.10;90.20;;;;;;5079117;28;20083;-79
2023/07/14 12:43:24;;;;;;;5.53;3.10;;;24.90;91.10;;;;;;5122044;28;20047;-81
2023/07/14 12:45:50;;;;;;;13.38;3.35;;;24.70;90.40;;;;;;5108977;28;20043;-80
2023/07/14 12:48:15;;;;;;;23.77;4.70;;;24.50;90.90;;;;;;5110560;28;20157;-80
2023/07/14 12:50:44;;;;;;;6.20;3.10;;;24.50;90.90;;;;;;5098017;28;20049;-80
2023/07/14 12:53:16;;;;;;;6.00;3.00;;;24.40;90.90;;;;;;5108212;28;20088;-78
2023/07/14 12:55:43;;;;;;;5.65;3.17;;;24.20;91.30;;;;;;5118415;28;20044;-80
2023/07/14 12:58:24;;;;;;;8.68;3.05;;;24.00;91.20;;;;;;5109763;28;20103;-79
2023/07/14 13:00:54;;;;;;;7.80;3.45;;;23.80;91.10;;;;;;5123981;28;20035;-81
2023/07/14 13:03:20;;;;;;;8.35;3.33;;;23.70;91.40;;;;;;5104681;28;20050;-80